Time;durP1;ratioP1;P1;durP2;ratioP2;P2;SDS_P1;SDS_P2;PMS_P1;PMS_P2;Temp;Humidity;BMP_temperature;BMP_pressure;BME280_temperature;BME280_humidity;BME280_pressure;Samples;Min_cycle;Max_cycle;Signal;HPM_P1;HPM_P2
2022/06/01 00:01:35;;;;;;;3.13;2.00;;;9.80;99.90;;;;;;5018217;28;20723;-85
2022/06/01 00:04:03;;;;;;;3.83;2.25;;;9.80;99.90;;;;;;5015145;28;20386;-85
2022/06/01 00:06:31;;;;;;;5.45;2.35;;;9.80;99.90;;;;;;5015684;28;20927;-85
2022/06/01 00:08:58;;;;;;;4.65;2.35;;;9.80;99.90;;;;;;5023578;28;20490;-84
2022/06/01 00:11:27;;;;;;;7.25;2.60;;;9.80;99.90;;;;;;5014721;28;20938;-85
2022/06/01 00:13:54;;;;;;;4.65;2.28;;;9.90;99.90;;;;;;5014178;28;20411;-84
2022/06/01 00:16:23;;;;;;;3.35;2.13;;;9.80;99.90;;;;;;5018168;28;20399;-84
2022/06/01 00:18:51;;;;;;;3.85;2.10;;;9.80;99.90;;;;;;5020071;28;20435;-85
2022/06/01 00:21:19;;;;;;;5.93;2.30;;;9.80;99.90;;;;;;5018921;28;20398;-86
2022/06/01 00:23:48;;;;;;;3.50;2.05;;;9.80;99.90;;;;;;5012110;28;20411;-85
2022/06/01 00:26:17;;;;;;;6.80;2.25;;;9.80;99.90;;;;;;5022075;28;20402;-84
2022/06/01 00:28:45;;;;;;;5.30;2.35;;;9.80;99.90;;;;;;5010838;28;20398;-85
2022/06/01 00:31:13;;;;;;;4.35;2.30;;;9.80;99.90;;;;;;5016287;28;20405;-85
2022/06/01 00:33:42;;;;;;;6.50;2.45;;;9.80;99.90;;;;;;5017220;28;20482;-85
2022/06/01 00:36:10;;;;;;;3.55;2.20;;;9.80;99.90;;;;;;5017921;28;20903;-84
2022/06/01 00:38:38;;;;;;;4.63;2.45;;;9.70;99.90;;;;;;5019003;28;20408;-85
2022/06/01 00:41:06;;;;;;;5.40;2.33;;;9.80;99.90;;;;;;5016835;28;20419;-84
2022/06/01 00:43:42;;;;;;;5.97;2.05;;;9.70;99.90;;;;;;5019287;28;21104;-84
2022/06/01 00:46:10;;;;;;;3.50;2.10;;;9.70;99.90;;;;;;5020764;28;20485;-86
2022/06/01 00:48:43;;;;;;;4.43;2.33;;;9.70;99.90;;;;;;5011003;28;20407;-86
2022/06/01 00:51:15;;;;;;;4.35;2.60;;;9.60;99.90;;;;;;5024225;28;20384;-85
2022/06/01 00:53:45;;;;;;;3.05;2.08;;;9.70;99.90;;;;;;5017017;28;20406;-85
2022/06/01 00:56:19;;;;;;;4.43;2.10;;;9.60;99.90;;;;;;5016140;28;20869;-84
2022/06/01 00:58:50;;;;;;;4.47;2.75;;;9.60;99.90;;;;;;5022304;28;20409;-84
2022/06/01 01:01:20;;;;;;;3.80;2.00;;;9.60;99.90;;;;;;5024762;28;20488;-84
2022/06/01 01:03:52;;;;;;;4.90;2.20;;;9.60;99.90;;;;;;5019857;28;20393;-85
2022/06/01 01:06:26;;;;;;;5.10;2.30;;;9.60;99.90;;;;;;5022241;28;20889;-83
2022/06/01 01:08:55;;;;;;;2.83;2.10;;;9.60;99.90;;;;;;5019256;28;20760;-84
2022/06/01 01:11:39;;;;;;;4.60;2.00;;;9.50;99.90;;;;;;5018570;28;20411;-84
2022/06/01 01:14:07;;;;;;;4.72;2.38;;;9.50;99.90;;;;;;5020213;28;20409;-84
2022/06/01 01:16:35;;;;;;;5.90;2.38;;;9.50;99.90;;;;;;5022167;28;20866;-85
2022/06/01 01:19:13;;;;;;;3.85;2.30;;;9.40;99.90;;;;;;5018598;28;20397;-83
2022/06/01 01:22:10;;;;;;;3.80;2.25;;;9.50;99.90;;;;;;5013996;28;20431;-84
2022/06/01 01:25:17;;;;;;;4.73;2.20;;;9.40;99.90;;;;;;5018915;28;20462;-84
2022/06/01 01:27:47;;;;;;;4.97;2.17;;;9.40;99.90;;;;;;5023784;28;20393;-85
2022/06/01 01:30:33;;;;;;;4.67;2.47;;;9.40;99.90;;;;;;5022601;28;20880;-84
2022/06/01 01:33:23;;;;;;;5.90;2.10;;;9.30;99.90;;;;;;5008328;28;20819;-84
2022/06/01 01:36:04;;;;;;;4.20;1.80;;;9.30;99.90;;;;;;5009005;28;20780;-86
2022/06/01 01:39:13;;;;;;;3.33;2.20;;;9.30;99.90;;;;;;5024354;28;20385;-84
2022/06/01 01:41:44;;;;;;;4.32;2.33;;;9.30;99.90;;;;;;5064579;28;20394;-84
2022/06/01 01:44:16;;;;;;;5.20;2.40;;;9.20;99.90;;;;;;5059454;28;20860;-84
2022/06/01 01:46:47;;;;;;;2.80;2.30;;;9.20;99.90;;;;;;5044139;28;20405;-85
2022/06/01 01:49:21;;;;;;;2.55;2.20;;;9.20;99.90;;;;;;5016571;28;20492;-84
2022/06/01 01:51:55;;;;;;;3.67;2.20;;;9.20;99.90;;;;;;5009093;28;20877;-85
2022/06/01 01:54:37;;;;;;;6.10;2.45;;;9.20;99.90;;;;;;5021285;28;20403;-85
2022/06/01 01:57:18;;;;;;;4.68;2.25;;;9.20;99.90;;;;;;5013244;28;20398;-83
2022/06/01 02:00:05;;;;;;;5.57;2.20;;;9.20;99.90;;;;;;5017511;28;20496;-83
2022/06/01 02:02:55;;;;;;;3.60;2.20;;;9.10;99.90;;;;;;5012456;28;20873;-85
2022/06/01 02:08:25;;;;;;;5.68;2.65;;;9.10;99.90;;;;;;5020903;28;20576;-84
2022/06/01 02:13:48;;;;;;;5.20;2.75;;;9.20;99.90;;;;;;5014149;28;20415;-84
2022/06/01 02:16:17;;;;;;;4.85;2.80;;;9.10;99.90;;;;;;5013610;28;20489;-86
2022/06/01 02:18:50;;;;;;;5.53;2.67;;;9.10;99.90;;;;;;5017438;28;20386;-83
2022/06/01 02:21:25;;;;;;;5.45;3.00;;;9.00;99.90;;;;;;5016334;28;20388;-84
2022/06/01 02:23:54;;;;;;;5.05;2.83;;;9.00;99.90;;;;;;5012522;28;20881;-83
2022/06/01 02:26:22;;;;;;;5.90;3.08;;;9.00;99.90;;;;;;5015995;28;20819;-84
2022/06/01 02:29:01;;;;;;;4.38;2.40;;;9.00;99.90;;;;;;5008107;28;20388;-84
2022/06/01 02:31:30;;;;;;;4.28;2.45;;;9.00;99.90;;;;;;5009343;28;20390;-84
2022/06/01 02:33:59;;;;;;;4.70;2.90;;;9.00;99.90;;;;;;5019025;28;20411;-84
2022/06/01 02:36:28;;;;;;;5.07;3.08;;;9.00;99.90;;;;;;5012136;28;20409;-84
2022/06/01 02:38:58;;;;;;;3.67;2.63;;;9.00;99.90;;;;;;5019135;28;20390;-85
2022/06/01 02:44:15;;;;;;;4.88;2.75;;;9.00;99.90;;;;;;5018148;28;20439;-84
2022/06/01 02:46:43;;;;;;;3.70;2.47;;;9.00;99.90;;;;;;5017958;28;20398;-84
2022/06/01 02:49:11;;;;;;;4.60;2.60;;;9.00;99.90;;;;;;5018908;28;20419;-84
2022/06/01 02:51:39;;;;;;;5.45;3.47;;;9.00;99.90;;;;;;5022357;28;20832;-84
2022/06/01 02:54:08;;;;;;;3.42;2.53;;;9.00;99.90;;;;;;5023793;28;20493;-84
2022/06/01 02:56:36;;;;;;;4.72;2.95;;;9.10;99.90;;;;;;5017743;28;20409;-83
2022/06/01 02:59:05;;;;;;;4.72;2.88;;;9.10;99.90;;;;;;5018622;28;20940;-84
2022/06/01 03:01:36;;;;;;;5.93;2.95;;;9.10;99.90;;;;;;5023619;28;20390;-84
2022/06/01 03:04:06;;;;;;;4.45;2.67;;;9.10;99.90;;;;;;5017069;28;20406;-84
2022/06/01 03:06:34;;;;;;;6.97;2.72;;;9.10;99.90;;;;;;5019840;28;20439;-84
2022/06/01 03:09:22;;;;;;;4.40;3.15;;;9.10;99.90;;;;;;5010765;28;20398;-84
2022/06/01 03:11:50;;;;;;;5.13;3.13;;;9.10;99.90;;;;;;5012803;28;20813;-84
2022/06/01 03:14:18;;;;;;;6.38;3.40;;;9.10;99.90;;;;;;5020282;28;20415;-86
2022/06/01 03:16:45;;;;;;;4.60;3.03;;;9.10;99.90;;;;;;5019043;28;20381;-84
2022/06/01 03:19:14;;;;;;;7.28;3.50;;;9.10;99.90;;;;;;5015356;28;20445;-84
2022/06/01 03:21:41;;;;;;;3.78;3.00;;;9.20;99.90;;;;;;5019642;28;20417;-85
2022/06/01 03:24:09;;;;;;;5.93;3.20;;;9.20;99.90;;;;;;5018050;28;20497;-85
2022/06/01 03:26:37;;;;;;;4.65;2.90;;;9.30;99.90;;;;;;5018501;28;20453;-84
2022/06/01 03:29:05;;;;;;;3.97;3.17;;;9.20;99.90;;;;;;5013147;28;20407;-85
2022/06/01 03:31:32;;;;;;;4.72;3.17;;;9.30;99.90;;;;;;5022954;28;20386;-83
2022/06/01 03:34:01;;;;;;;4.95;2.58;;;9.30;99.90;;;;;;5020020;28;20402;-84
2022/06/01 03:36:29;;;;;;;4.97;2.80;;;9.20;99.90;;;;;;5026746;28;20397;-84
2022/06/01 03:38:58;;;;;;;3.42;2.97;;;9.30;99.90;;;;;;5013283;28;20415;-82
2022/06/01 03:41:27;;;;;;;5.00;3.25;;;9.30;99.90;;;;;;5020592;28;20413;-86
2022/06/01 03:46:42;;;;;;;4.45;3.25;;;9.30;99.90;;;;;;5024550;27;20492;-84
2022/06/01 03:49:10;;;;;;;5.97;3.50;;;9.30;99.90;;;;;;5019334;28;20945;-85
2022/06/01 03:51:37;;;;;;;4.40;3.55;;;9.40;99.90;;;;;;5010662;28;20457;-84
2022/06/01 03:54:06;;;;;;;6.32;3.50;;;9.40;99.90;;;;;;5023163;28;20403;-85
2022/06/01 03:56:33;;;;;;;5.57;3.70;;;9.50;99.90;;;;;;5015130;28;20427;-85
2022/06/01 03:59:01;;;;;;;6.15;3.58;;;9.40;99.90;;;;;;5020232;28;20928;-84
2022/06/01 04:01:30;;;;;;;4.72;3.53;;;9.50;99.90;;;;;;5017916;28;20488;-85
2022/06/01 04:03:58;;;;;;;5.55;3.55;;;9.60;99.90;;;;;;5015316;28;20407;-85
2022/06/01 04:06:27;;;;;;;4.55;3.33;;;9.60;99.90;;;;;;5017717;28;20892;-84
2022/06/01 04:08:55;;;;;;;3.90;3.13;;;9.70;99.90;;;;;;5018562;28;20911;-85
2022/06/01 04:11:23;;;;;;;5.22;3.55;;;9.70;99.90;;;;;;5019463;28;20393;-84
2022/06/01 04:13:51;;;;;;;6.35;3.60;;;9.70;99.90;;;;;;5013104;28;20407;-84
2022/06/01 04:16:19;;;;;;;4.20;3.70;;;9.70;99.90;;;;;;5018249;28;20466;-85
2022/06/01 04:18:48;;;;;;;6.60;3.03;;;9.70;99.90;;;;;;5021100;28;20467;-84
2022/06/01 04:21:21;;;;;;;4.05;2.88;;;9.70;99.90;;;;;;5024167;28;20386;-85
2022/06/01 04:23:50;;;;;;;4.68;3.60;;;9.70;99.90;;;;;;5018492;28;20403;-85
2022/06/01 04:26:18;;;;;;;4.28;3.38;;;9.70;99.90;;;;;;5019582;28;20399;-85
2022/06/01 04:28:46;;;;;;;6.10;4.00;;;9.80;99.90;;;;;;5010594;28;20398;-86
2022/06/01 04:31:14;;;;;;;6.70;4.83;;;9.80;99.90;;;;;;5023840;28;20413;-86
2022/06/01 04:33:43;;;;;;;5.78;4.03;;;9.90;99.90;;;;;;5020835;28;20435;-84
2022/06/01 04:36:10;;;;;;;5.43;4.10;;;9.90;99.90;;;;;;5010667;28;20482;-86
2022/06/01 04:38:38;;;;;;;5.15;3.50;;;10.00;99.90;;;;;;5018967;28;20477;-84
2022/06/01 04:41:06;;;;;;;5.78;3.70;;;10.00;99.90;;;;;;5015444;28;20401;-85
2022/06/01 04:43:33;;;;;;;5.90;3.80;;;10.10;99.90;;;;;;5019074;28;20404;-85
2022/06/01 04:46:01;;;;;;;4.80;3.58;;;10.10;99.90;;;;;;5015246;28;20403;-86
2022/06/01 04:48:29;;;;;;;4.57;3.47;;;10.20;99.90;;;;;;5011633;28;20403;-86
2022/06/01 04:50:58;;;;;;;5.80;4.20;;;10.30;99.90;;;;;;5016562;28;20485;-86
2022/06/01 04:53:29;;;;;;;5.43;3.85;;;10.30;99.90;;;;;;5013798;28;20421;-85
2022/06/01 04:55:57;;;;;;;6.18;4.30;;;10.40;99.90;;;;;;5008948;28;20770;-84
2022/06/01 04:58:25;;;;;;;5.47;4.07;;;10.40;99.90;;;;;;5013522;28;20752;-87
2022/06/01 05:00:53;;;;;;;7.00;4.50;;;10.50;99.90;;;;;;5013580;28;20438;-85
2022/06/01 05:03:20;;;;;;;7.82;4.80;;;10.60;99.90;;;;;;5050395;28;20761;-87
2022/06/01 05:05:49;;;;;;;6.37;4.10;;;10.60;99.90;;;;;;5011195;28;20885;-85
2022/06/01 05:08:16;;;;;;;6.22;4.03;;;10.70;99.90;;;;;;5015286;28;20399;-85
2022/06/01 05:10:44;;;;;;;5.63;3.90;;;10.70;99.90;;;;;;5012535;28;20401;-86
2022/06/01 05:13:12;;;;;;;6.55;3.70;;;10.80;99.90;;;;;;5018538;28;20442;-85
2022/06/01 05:15:47;;;;;;;5.72;4.32;;;10.80;99.90;;;;;;5008872;28;20407;-85
2022/06/01 05:18:15;;;;;;;6.72;4.47;;;10.80;99.90;;;;;;5012373;28;20392;-85
2022/06/01 05:20:43;;;;;;;12.65;8.13;;;10.90;99.90;;;;;;5014101;28;20968;-87
2022/06/01 05:23:10;;;;;;;6.77;4.10;;;10.90;99.90;;;;;;5014016;28;20405;-85
2022/06/01 05:25:42;;;;;;;6.55;4.22;;;11.00;99.90;;;;;;5018971;28;20415;-87
2022/06/01 05:28:11;;;;;;;6.38;4.80;;;11.00;99.90;;;;;;5011009;28;20395;-85
2022/06/01 05:30:39;;;;;;;6.32;4.20;;;11.00;99.90;;;;;;5021443;28;20495;-86
2022/06/01 05:33:06;;;;;;;6.23;4.20;;;11.10;99.90;;;;;;5018915;28;20499;-85
2022/06/01 05:35:34;;;;;;;6.20;4.00;;;11.20;99.90;;;;;;5011156;28;20407;-85
2022/06/01 05:38:02;;;;;;;6.68;4.57;;;11.20;99.90;;;;;;5013772;28;20506;-84
2022/06/01 05:40:30;;;;;;;5.85;4.30;;;11.20;99.90;;;;;;5011141;28;20429;-86
2022/06/01 05:42:58;;;;;;;6.07;4.10;;;11.20;99.90;;;;;;5014715;28;20393;-84
2022/06/01 05:45:29;;;;;;;5.72;4.20;;;11.20;99.90;;;;;;5021647;28;20784;-85
2022/06/01 05:47:57;;;;;;;5.15;4.25;;;11.20;99.90;;;;;;5017003;28;20448;-86
2022/06/01 05:50:25;;;;;;;5.57;4.20;;;11.20;99.90;;;;;;5019573;28;20390;-87
2022/06/01 05:52:52;;;;;;;4.80;4.10;;;11.20;99.90;;;;;;5014608;28;20874;-84
2022/06/01 05:55:20;;;;;;;5.93;4.50;;;11.20;99.90;;;;;;5008139;28;20984;-86
2022/06/01 05:57:47;;;;;;;6.20;4.32;;;11.20;99.90;;;;;;5014490;28;20831;-86
2022/06/01 06:00:16;;;;;;;5.53;4.13;;;11.20;99.90;;;;;;5000255;28;20415;-85
2022/06/01 06:02:45;;;;;;;5.97;4.50;;;11.20;99.90;;;;;;5016551;28;20417;-86
2022/06/01 06:07:59;;;;;;;5.50;4.22;;;11.20;99.90;;;;;;5011290;28;20401;-85
2022/06/01 06:10:28;;;;;;;5.80;4.10;;;11.20;99.90;;;;;;5018338;28;20431;-86
2022/06/01 06:12:55;;;;;;;5.05;4.25;;;11.20;99.90;;;;;;5019886;28;20406;-86
2022/06/01 06:15:23;;;;;;;4.80;4.18;;;11.30;99.90;;;;;;5025589;28;20512;-86
2022/06/01 06:17:54;;;;;;;6.00;4.20;;;11.30;99.90;;;;;;5022366;28;20383;-87
2022/06/01 06:20:21;;;;;;;5.88;4.28;;;11.30;99.90;;;;;;5017125;28;20931;-85
2022/06/01 06:22:49;;;;;;;5.72;4.10;;;11.40;99.90;;;;;;5012569;28;20441;-85
2022/06/01 06:25:17;;;;;;;5.03;4.30;;;11.40;99.90;;;;;;5010826;28;20473;-85
2022/06/01 06:27:45;;;;;;;6.05;4.13;;;11.50;99.90;;;;;;5012819;28;20455;-86
2022/06/01 06:30:18;;;;;;;6.03;4.07;;;11.50;99.90;;;;;;5023600;28;20848;-85
2022/06/01 06:32:46;;;;;;;6.45;4.63;;;11.50;99.90;;;;;;5022194;28;20406;-85
2022/06/01 06:35:14;;;;;;;6.23;4.50;;;11.50;99.90;;;;;;5020776;28;20445;-88
2022/06/01 06:37:43;;;;;;;5.13;4.18;;;11.50;99.90;;;;;;5045144;27;20889;-85
2022/06/01 06:40:13;;;;;;;5.43;4.22;;;11.50;99.90;;;;;;5031960;27;20407;-87
2022/06/01 06:42:42;;;;;;;5.05;4.55;;;11.60;99.90;;;;;;5022500;28;20403;-87
2022/06/01 06:45:10;;;;;;;6.80;4.63;;;11.60;99.90;;;;;;5024454;28;20912;-87
2022/06/01 06:47:38;;;;;;;4.30;3.90;;;11.70;99.90;;;;;;5016673;28;20406;-85
2022/06/01 06:50:08;;;;;;;5.10;4.60;;;11.70;99.90;;;;;;5020140;28;20406;-88
2022/06/01 06:52:36;;;;;;;6.10;4.50;;;11.80;99.90;;;;;;5019459;28;20400;-87
2022/06/01 06:55:05;;;;;;;5.93;4.28;;;11.90;99.90;;;;;;5022998;27;20493;-86
2022/06/01 06:57:33;;;;;;;5.50;4.32;;;11.90;99.90;;;;;;5026547;28;20424;-87
2022/06/01 07:00:01;;;;;;;5.70;4.07;;;11.90;99.90;;;;;;5015516;28;20996;-86
2022/06/01 07:02:28;;;;;;;6.82;4.55;;;12.00;99.90;;;;;;5051922;28;20878;-86
2022/06/01 07:04:56;;;;;;;4.60;3.90;;;12.00;99.90;;;;;;5022132;28;20424;-87
2022/06/01 07:07:24;;;;;;;6.72;4.28;;;12.10;99.90;;;;;;5024666;28;20424;-86
2022/06/01 07:09:52;;;;;;;7.60;4.20;;;12.20;99.90;;;;;;5018350;28;20397;-85
2022/06/01 07:12:19;;;;;;;5.25;4.10;;;12.20;99.90;;;;;;5020079;28;20411;-86
2022/06/01 07:14:47;;;;;;;5.68;4.45;;;12.30;99.90;;;;;;5019143;28;20407;-86
2022/06/01 07:17:15;;;;;;;5.40;4.35;;;12.30;99.90;;;;;;5015684;28;20406;-85
2022/06/01 07:19:43;;;;;;;6.55;4.47;;;12.30;99.90;;;;;;5024456;28;20398;-85
2022/06/01 07:22:11;;;;;;;4.70;3.80;;;12.40;99.90;;;;;;5028972;27;20403;-85
2022/06/01 07:24:39;;;;;;;4.93;4.10;;;12.40;99.90;;;;;;5016867;28;20418;-86
2022/06/01 07:27:06;;;;;;;5.65;4.30;;;12.50;99.90;;;;;;5025040;28;20485;-85
2022/06/01 07:29:34;;;;;;;5.30;4.50;;;12.50;99.90;;;;;;5024764;28;20836;-85
2022/06/01 07:32:03;;;;;;;11.73;4.82;;;12.60;99.90;;;;;;5024437;28;20401;-84
2022/06/01 07:34:31;;;;;;;5.37;4.40;;;12.70;99.90;;;;;;5019492;28;20760;-84
2022/06/01 07:43:05;;;;;;;4.95;4.03;;;12.90;99.90;;;;;;5016366;28;20433;-83
2022/06/01 07:45:19;;;;;;;4.67;4.20;;;13.30;99.90;;;;;;5014789;28;20405;-84
2022/06/01 07:47:46;;;;;;;5.97;4.00;;;13.40;99.90;;;;;;5014260;28;20501;-85
2022/06/01 07:50:36;;;;;;;6.35;4.20;;;13.60;99.90;;;;;;5034679;27;20415;-85
2022/06/01 07:53:13;;;;;;;5.40;3.93;;;13.60;99.90;;;;;;5016812;28;20453;-86
2022/06/01 07:55:41;;;;;;;6.40;4.38;;;13.50;99.90;;;;;;5017409;28;20403;-84
2022/06/01 07:58:09;;;;;;;5.60;4.18;;;13.50;99.90;;;;;;5016797;28;20486;-85
2022/06/01 08:00:36;;;;;;;6.10;4.30;;;13.50;99.90;;;;;;5018232;28;20419;-85
2022/06/01 08:03:12;;;;;;;7.13;4.55;;;13.80;99.90;;;;;;5015701;28;20490;-86
2022/06/01 08:05:40;;;;;;;6.53;4.15;;;13.80;99.90;;;;;;5025272;28;20749;-85
2022/06/01 08:08:08;;;;;;;5.55;4.07;;;13.70;99.90;;;;;;5019235;28;20468;-85
2022/06/01 08:10:36;;;;;;;5.63;3.65;;;14.00;99.90;;;;;;5051533;28;20470;-85
2022/06/01 08:13:09;;;;;;;6.03;4.20;;;14.00;99.90;;;;;;5021239;28;20430;-85
2022/06/01 08:15:44;;;;;;;4.15;3.75;;;14.10;99.90;;;;;;5022954;28;20463;-85
2022/06/01 08:18:18;;;;;;;6.35;3.97;;;14.20;99.90;;;;;;5019751;28;20737;-85
2022/06/01 08:20:46;;;;;;;6.00;3.42;;;14.30;99.90;;;;;;5015976;28;20402;-85
2022/06/01 08:23:21;;;;;;;4.30;3.70;;;14.70;99.90;;;;;;5013185;28;20399;-84
2022/06/01 08:25:49;;;;;;;5.32;3.70;;;14.60;99.90;;;;;;5016881;28;20395;-84
2022/06/01 08:28:18;;;;;;;4.60;3.27;;;14.80;99.90;;;;;;5016607;28;20390;-86
2022/06/01 08:30:47;;;;;;;6.93;3.63;;;14.80;99.90;;;;;;5016408;28;20403;-86
2022/06/01 08:33:15;;;;;;;4.88;3.42;;;14.90;99.90;;;;;;5014236;28;20490;-85
2022/06/01 08:35:46;;;;;;;5.47;3.30;;;15.00;99.90;;;;;;5013771;28;20776;-84
2022/06/01 08:38:15;;;;;;;6.07;3.30;;;15.10;99.90;;;;;;5018783;28;20409;-85
2022/06/01 08:40:49;;;;;;;5.70;3.13;;;15.20;99.90;;;;;;5014245;28;20904;-84
2022/06/01 08:43:21;;;;;;;3.75;3.10;;;15.20;99.90;;;;;;5012243;28;20490;-85
2022/06/01 08:45:56;;;;;;;3.67;3.00;;;15.50;99.90;;;;;;5017426;28;20881;-85
2022/06/01 08:48:39;;;;;;;4.60;3.00;;;15.50;99.90;;;;;;5009167;28;20723;-87
2022/06/01 08:51:07;;;;;;;3.65;2.92;;;15.50;99.90;;;;;;5022158;28;20443;-86
2022/06/01 08:53:35;;;;;;;4.03;3.00;;;15.50;99.90;;;;;;5015076;28;20457;-85
2022/06/01 08:56:17;;;;;;;5.10;3.00;;;15.60;99.90;;;;;;5017425;28;20410;-86
2022/06/01 08:58:59;;;;;;;5.93;3.10;;;15.60;99.90;;;;;;5023840;27;20399;-85
2022/06/01 09:01:51;;;;;;;3.08;2.75;;;15.50;99.90;;;;;;5009063;28;20379;-84
2022/06/01 09:04:37;;;;;;;5.63;3.10;;;15.50;99.90;;;;;;5013740;28;20395;-86
2022/06/01 09:07:25;;;;;;;5.80;2.73;;;15.60;99.90;;;;;;5023902;28;20396;-86
2022/06/01 09:09:53;;;;;;;5.10;3.10;;;15.50;99.90;;;;;;5015624;28;20393;-85
2022/06/01 09:12:20;;;;;;;4.60;2.88;;;15.60;99.90;;;;;;5016468;28;20411;-85
2022/06/01 09:14:53;;;;;;;5.45;2.78;;;15.50;99.90;;;;;;5019388;28;20408;-85
2022/06/01 09:17:21;;;;;;;4.75;3.10;;;15.40;99.90;;;;;;5016275;28;20406;-85
2022/06/01 09:22:41;;;;;;;5.10;3.10;;;15.40;99.90;;;;;;5022965;28;20403;-85
2022/06/01 09:25:16;;;;;;;6.78;2.72;;;15.40;99.90;;;;;;5020007;28;20408;-85
2022/06/01 09:27:53;;;;;;;3.50;2.60;;;15.40;99.90;;;;;;5026303;28;20921;-86
2022/06/01 09:30:37;;;;;;;4.63;2.95;;;15.60;99.90;;;;;;5022489;28;20431;-85
2022/06/01 09:33:11;;;;;;;4.18;2.60;;;15.70;99.90;;;;;;5023471;28;20405;-85
2022/06/01 09:35:45;;;;;;;3.80;2.83;;;15.90;99.90;;;;;;5014689;28;20416;-85
2022/06/01 09:38:36;;;;;;;4.97;2.92;;;16.00;99.90;;;;;;5024117;28;20774;-85
2022/06/01 09:41:07;;;;;;;4.97;2.72;;;16.10;99.90;;;;;;5017694;28;20888;-85
2022/06/01 09:43:39;;;;;;;4.27;2.70;;;16.20;99.90;;;;;;5044172;28;20735;-85
2022/06/01 09:46:08;;;;;;;2.67;2.30;;;16.50;99.90;;;;;;5023867;28;20410;-86
2022/06/01 09:48:46;;;;;;;6.20;2.70;;;16.50;99.90;;;;;;5020771;28;20405;-84
2022/06/01 09:51:22;;;;;;;3.60;2.60;;;16.60;99.90;;;;;;5025839;28;20891;-84
2022/06/01 09:54:25;;;;;;;4.90;2.53;;;16.90;99.90;;;;;;5051014;28;20900;-85
2022/06/01 09:56:55;;;;;;;3.42;2.50;;;16.70;99.90;;;;;;5027972;28;20460;-86
2022/06/01 10:08:15;;;;;;;4.75;2.85;;;16.30;99.90;;;;;;5026529;28;20403;-85
2022/06/01 10:11:10;;;;;;;3.35;2.40;;;16.20;99.90;;;;;;5024314;28;20497;-85
2022/06/01 10:13:49;;;;;;;6.40;2.80;;;16.10;99.90;;;;;;5028560;28;20399;-85
2022/06/01 10:16:36;;;;;;;4.35;2.53;;;16.10;99.90;;;;;;5027475;28;20520;-85
2022/06/01 10:19:10;;;;;;;7.10;2.80;;;16.20;99.90;;;;;;5025705;28;20395;-85
2022/06/01 10:22:00;;;;;;;3.45;2.67;;;16.10;99.90;;;;;;5017591;28;20842;-85
2022/06/01 10:24:53;;;;;;;4.20;2.78;;;16.20;99.90;;;;;;5026212;28;20395;-86
2022/06/01 10:27:28;;;;;;;4.43;2.97;;;16.30;99.90;;;;;;5029925;28;20385;-86
2022/06/01 10:30:19;;;;;;;4.25;2.63;;;16.40;99.90;;;;;;5028184;28;20502;-85
2022/06/01 10:32:55;;;;;;;5.03;2.60;;;16.40;99.90;;;;;;5025124;28;20431;-85
2022/06/01 10:35:52;;;;;;;5.43;2.80;;;16.60;99.90;;;;;;5026032;28;20413;-86
2022/06/01 10:38:27;;;;;;;4.30;2.60;;;16.70;99.90;;;;;;5022300;28;20408;-86
2022/06/01 10:41:19;;;;;;;4.53;2.47;;;16.90;99.90;;;;;;5024628;28;20391;-86
2022/06/01 10:44:12;;;;;;;4.13;2.50;;;17.10;99.90;;;;;;5018202;28;20407;-85
2022/06/01 10:46:50;;;;;;;4.25;2.40;;;17.20;99.90;;;;;;5026336;28;20402;-85
2022/06/01 10:49:26;;;;;;;2.78;2.35;;;17.20;99.90;;;;;;5023795;28;20414;-86
2022/06/01 10:52:24;;;;;;;5.53;2.63;;;17.10;99.90;;;;;;5026192;28;20899;-85
2022/06/01 10:55:13;;;;;;;3.97;2.53;;;17.10;99.90;;;;;;5024534;28;20477;-86
2022/06/01 10:57:45;;;;;;;2.97;2.13;;;17.00;99.90;;;;;;5022365;28;20814;-85
2022/06/01 11:00:18;;;;;;;3.70;2.40;;;16.90;99.90;;;;;;5016759;27;20429;-86
2022/06/01 11:03:20;;;;;;;4.10;2.40;;;16.80;99.90;;;;;;5025843;28;20497;-88
2022/06/01 11:05:56;;;;;;;4.13;2.20;;;16.70;99.90;;;;;;5023548;27;20498;-85
2022/06/01 11:08:42;;;;;;;3.72;2.35;;;16.60;99.90;;;;;;5043173;28;20413;-86
2022/06/01 11:11:51;;;;;;;3.95;2.28;;;16.60;99.90;;;;;;5024183;28;20402;-86
2022/06/01 11:15:06;;;;;;;3.78;2.28;;;16.70;99.90;;;;;;4969541;28;20766;-86
2022/06/01 11:17:41;;;;;;;4.50;2.20;;;16.70;99.90;;;;;;5022067;28;20957;-86
2022/06/01 11:20:34;;;;;;;4.03;2.60;;;16.80;99.90;;;;;;5016204;28;20811;-85
2022/06/01 11:23:31;;;;;;;3.25;2.22;;;16.70;99.90;;;;;;5014277;28;20883;-86
2022/06/01 11:26:11;;;;;;;4.03;2.55;;;16.70;99.90;;;;;;5017966;28;20387;-86
2022/06/01 11:28:41;;;;;;;3.25;2.10;;;16.70;99.90;;;;;;5021559;28;20449;-84
2022/06/01 11:31:24;;;;;;;3.90;2.40;;;16.60;99.90;;;;;;5016022;28;20391;-85
2022/06/01 11:33:59;;;;;;;3.90;2.28;;;16.60;99.90;;;;;;5010768;28;20531;-86
2022/06/01 11:36:37;;;;;;;3.58;2.20;;;16.60;99.90;;;;;;5010861;28;20411;-85
2022/06/01 11:39:18;;;;;;;3.83;2.47;;;16.60;99.90;;;;;;5016388;28;20411;-86
2022/06/01 11:41:59;;;;;;;3.28;2.25;;;16.60;99.90;;;;;;5029215;28;20515;-86
2022/06/01 11:44:36;;;;;;;2.83;2.20;;;16.60;99.90;;;;;;5023335;28;20880;-86
2022/06/01 11:47:13;;;;;;;4.28;2.40;;;16.60;99.90;;;;;;5016170;28;20383;-86
2022/06/01 11:49:44;;;;;;;3.67;2.35;;;16.60;99.90;;;;;;5015815;28;20761;-86
2022/06/01 11:52:16;;;;;;;4.28;2.40;;;16.70;99.90;;;;;;5014601;28;20433;-86
2022/06/01 11:54:44;;;;;;;3.22;2.25;;;16.70;99.90;;;;;;5018248;28;20480;-86
2022/06/01 11:57:40;;;;;;;3.97;2.30;;;16.70;99.90;;;;;;5014117;28;20488;-85
2022/06/01 12:00:43;;;;;;;5.18;2.45;;;16.80;99.90;;;;;;5020328;28;20404;-86
2022/06/01 12:03:41;;;;;;;3.55;2.28;;;16.90;99.90;;;;;;5023526;28;20411;-86
2022/06/01 12:06:40;;;;;;;6.03;2.67;;;16.90;99.90;;;;;;5016789;28;20406;-85
2022/06/01 12:09:17;;;;;;;4.15;3.00;;;17.00;99.90;;;;;;5014506;28;20399;-86
2022/06/01 12:11:46;;;;;;;4.50;2.40;;;17.10;99.90;;;;;;5011295;28;20431;-86
2022/06/01 12:14:32;;;;;;;5.75;2.42;;;17.20;99.90;;;;;;5015755;28;20996;-87
2022/06/01 12:17:18;;;;;;;2.92;2.17;;;17.20;99.90;;;;;;5015562;28;20421;-86
2022/06/01 12:20:12;;;;;;;3.53;2.00;;;17.30;99.90;;;;;;5015584;28;20406;-86
2022/06/01 12:28:58;;;;;;;4.05;2.20;;;17.60;99.90;;;;;;5016944;28;20446;-86
2022/06/01 12:31:57;;;;;;;3.20;2.05;;;17.50;99.90;;;;;;5026779;28;20937;-86
2022/06/01 12:34:33;;;;;;;1.83;1.70;;;17.50;99.90;;;;;;5022970;27;20486;-86
2022/06/01 12:37:07;;;;;;;2.92;2.10;;;17.40;99.90;;;;;;5010157;28;20758;-86
2022/06/01 12:39:38;;;;;;;3.55;2.20;;;17.40;99.90;;;;;;5046083;28;20392;-86
2022/06/01 12:42:33;;;;;;;3.38;2.00;;;17.40;99.90;;;;;;5017873;28;20905;-86
2022/06/01 12:45:06;;;;;;;2.42;2.05;;;17.40;99.90;;;;;;5008405;28;20404;-85
2022/06/01 12:47:35;;;;;;;4.35;2.47;;;17.70;99.90;;;;;;5010193;28;20391;-86
2022/06/01 12:50:09;;;;;;;3.25;2.10;;;17.80;99.90;;;;;;5016351;28;20526;-85
2022/06/01 12:52:37;;;;;;;4.18;2.20;;;17.90;99.90;;;;;;5021245;27;20828;-86
2022/06/01 12:55:09;;;;;;;3.90;2.30;;;17.90;99.90;;;;;;5022415;28;20409;-85
2022/06/01 12:57:43;;;;;;;3.55;2.33;;;17.80;99.90;;;;;;5022407;28;20441;-87
2022/06/01 13:00:25;;;;;;;3.70;2.05;;;17.70;99.90;;;;;;5025417;28;20493;-86
2022/06/01 13:02:54;;;;;;;3.63;2.03;;;17.70;99.90;;;;;;5034023;28;20830;-86
2022/06/01 13:05:24;;;;;;;3.40;2.08;;;17.70;99.90;;;;;;5018152;28;20401;-85
2022/06/01 13:07:57;;;;;;;4.80;2.25;;;17.60;99.90;;;;;;5016913;28;20407;-85
2022/06/01 13:10:33;;;;;;;5.57;2.20;;;17.60;99.90;;;;;;5018683;28;20984;-85
2022/06/01 13:13:08;;;;;;;2.92;1.80;;;17.60;99.90;;;;;;5007695;28;22680;-85
2022/06/01 13:15:38;;;;;;;3.67;1.90;;;17.60;99.90;;;;;;5014178;28;20425;-87
2022/06/01 13:18:12;;;;;;;4.38;2.00;;;17.50;99.90;;;;;;5023081;27;20954;-87
2022/06/01 13:20:43;;;;;;;6.55;2.15;;;17.50;99.90;;;;;;5025056;28;20416;-85
2022/06/01 13:23:52;;;;;;;3.80;1.93;;;17.50;99.90;;;;;;5019521;28;20420;-86
2022/06/01 13:26:38;;;;;;;4.13;1.90;;;17.50;99.90;;;;;;5044535;28;20441;-86
2022/06/01 13:29:17;;;;;;;4.97;2.15;;;17.40;99.90;;;;;;5009570;28;20456;-86
2022/06/01 13:31:49;;;;;;;3.35;2.05;;;17.40;99.90;;;;;;5016813;28;20457;-86
2022/06/01 13:34:21;;;;;;;4.55;1.90;;;17.40;99.90;;;;;;5023741;28;20383;-85
2022/06/01 13:36:51;;;;;;;2.70;1.90;;;17.40;99.90;;;;;;5016481;28;20512;-86
2022/06/01 13:39:29;;;;;;;3.13;1.80;;;17.40;99.90;;;;;;5014839;28;20413;-86
2022/06/01 13:42:01;;;;;;;3.10;2.20;;;17.40;99.90;;;;;;5009438;28;20478;-86
2022/06/01 13:44:48;;;;;;;2.72;2.15;;;17.30;99.90;;;;;;5017435;28;20443;-85
2022/06/01 13:47:48;;;;;;;4.03;2.17;;;17.30;99.90;;;;;;5013486;28;20407;-86
2022/06/01 13:50:16;;;;;;;3.33;1.95;;;17.30;99.90;;;;;;5021648;28;20399;-86
2022/06/01 13:53:09;;;;;;;6.38;2.03;;;17.30;99.90;;;;;;5016979;28;20412;-86
2022/06/01 13:56:06;;;;;;;4.63;2.00;;;17.40;99.90;;;;;;5016900;28;20404;-85
2022/06/01 13:58:41;;;;;;;4.22;2.03;;;17.40;99.90;;;;;;5017536;28;20692;-85
2022/06/01 14:01:17;;;;;;;3.08;2.17;;;17.40;99.90;;;;;;5023335;28;20472;-85
2022/06/01 14:03:56;;;;;;;4.78;2.17;;;17.30;99.90;;;;;;5010253;28;20766;-85